Terminal Aerodrome Forecast
Issued by NWS Wilmington, OH

Home | Current Version | Previous Version | Text Only | Print | Product List | Glossary On
Versions: 1 2 3 4 5 6 7 8 9 10 11 12 13 14 15 16 17 18 19 20 21 22 23 24 25 26 27 28
000
FTUS41 KILN 031710 AAA
TAFCMH
TAF AMD
KCMH 031710Z 0317/0412 31007KT P6SM VCTS BKN040CB
      TEMPO 0317/0319 5SM -TSRA OVC025CB
     FM040100 VRB02KT P6SM VCTS SCT040CB BKN130=

USA.gov is the U.S. government's official web portal to all federal, state and local government web resources and services.